Time;durP1;ratioP1;P1;durP2;ratioP2;P2;SDS_P1;SDS_P2;PMS_P1;PMS_P2;Temp;Humidity;BMP_temperature;BMP_pressure;BME280_temperature;BME280_humidity;BME280_pressure;Samples;Min_cycle;Max_cycle;Signal;HPM_P1;HPM_P2
2023/02/24 00:01:36;;;;;;;11.20;5.10;;;10.00;99.90;;;;;;4957019;28;20414;-71
2023/02/24 00:04:10;;;;;;;12.20;4.80;;;10.00;99.90;;;;;;4991541;28;20445;-71
2023/02/24 00:06:39;;;;;;;8.33;4.30;;;10.00;99.90;;;;;;4992280;28;20927;-72
2023/02/24 00:09:12;;;;;;;10.87;4.53;;;10.00;99.90;;;;;;4986504;28;20821;-71
2023/02/24 00:11:41;;;;;;;9.70;5.00;;;10.00;99.90;;;;;;4977227;28;20532;-71
2023/02/24 00:14:08;;;;;;;12.90;5.33;;;10.00;99.90;;;;;;4997285;28;20937;-71
2023/02/24 00:16:36;;;;;;;12.90;4.60;;;10.00;99.90;;;;;;4974783;28;20472;-71
2023/02/24 00:19:09;;;;;;;13.20;4.30;;;10.00;99.90;;;;;;4987402;28;20409;-72
2023/02/24 00:21:37;;;;;;;12.43;4.30;;;10.00;99.90;;;;;;4992294;28;20433;-72
2023/02/24 00:24:07;;;;;;;18.27;4.40;;;10.00;99.90;;;;;;5034976;23;20568;-73
2023/02/24 00:26:33;;;;;;;10.73;4.10;;;9.90;99.90;;;;;;4959178;28;20966;-72
2023/02/24 00:29:05;;;;;;;9.33;4.30;;;10.00;99.90;;;;;;4955288;28;20429;-73
2023/02/24 00:31:32;;;;;;;12.07;4.83;;;9.90;99.90;;;;;;4943697;28;20417;-73
2023/02/24 00:34:01;;;;;;;13.87;5.03;;;9.90;99.90;;;;;;4970312;28;20779;-73
2023/02/24 00:36:34;;;;;;;13.80;5.27;;;9.90;99.90;;;;;;4939694;28;20561;-73
2023/02/24 00:39:12;;;;;;;15.90;4.90;;;9.90;99.90;;;;;;4956405;28;20492;-73
2023/02/24 00:41:42;;;;;;;10.53;4.50;;;9.90;99.90;;;;;;4958646;28;20466;-73
2023/02/24 00:44:13;;;;;;;14.30;4.60;;;9.90;99.90;;;;;;4958353;28;20923;-73
2023/02/24 00:46:43;;;;;;;9.60;4.27;;;9.90;99.90;;;;;;4942614;28;20462;-73
2023/02/24 00:49:23;;;;;;;9.67;4.37;;;9.90;99.90;;;;;;4974706;28;20796;-73
2023/02/24 00:51:53;;;;;;;12.70;5.40;;;9.90;99.90;;;;;;4944857;28;20952;-73
2023/02/24 00:54:25;;;;;;;11.57;4.23;;;9.90;99.90;;;;;;4958181;28;20421;-73
2023/02/24 00:56:55;;;;;;;14.97;5.90;;;9.90;99.90;;;;;;4957827;28;20461;-73
2023/02/24 00:59:25;;;;;;;10.80;5.17;;;9.90;99.90;;;;;;4974084;28;20422;-73
2023/02/24 01:01:53;;;;;;;17.07;4.20;;;9.90;99.90;;;;;;4965251;28;20458;-73
2023/02/24 01:04:22;;;;;;;15.90;4.60;;;9.90;99.90;;;;;;4958155;28;20647;-73
2023/02/24 01:06:51;;;;;;;15.57;4.97;;;9.90;99.90;;;;;;4993283;28;20563;-73
2023/02/24 01:09:20;;;;;;;12.27;3.73;;;9.90;99.90;;;;;;4975038;28;20421;-73
2023/02/24 01:14:35;;;;;;;10.53;4.10;;;9.90;99.90;;;;;;4960743;28;20445;-74
2023/02/24 01:17:05;;;;;;;14.03;4.40;;;9.90;99.90;;;;;;4945354;28;20487;-74
2023/02/24 01:19:35;;;;;;;12.80;4.10;;;9.80;99.90;;;;;;4953046;28;20505;-74
2023/02/24 01:22:05;;;;;;;12.83;4.73;;;9.80;99.90;;;;;;4972057;28;20516;-74
2023/02/24 01:24:34;;;;;;;11.70;4.37;;;9.80;99.90;;;;;;4977046;28;20401;-74
2023/02/24 01:27:07;;;;;;;13.60;3.30;;;9.80;99.90;;;;;;4973783;28;20446;-73
2023/02/24 01:29:38;;;;;;;8.37;4.40;;;9.90;99.90;;;;;;4957769;28;20406;-74
2023/02/24 01:32:12;;;;;;;14.40;3.90;;;9.80;99.90;;;;;;4942806;28;21100;-74
2023/02/24 01:34:41;;;;;;;12.77;4.73;;;9.80;99.90;;;;;;4956026;28;21105;-74
2023/02/24 01:37:09;;;;;;;12.73;3.97;;;9.80;99.90;;;;;;4958948;28;20441;-74
2023/02/24 01:39:36;;;;;;;16.67;5.53;;;9.80;99.90;;;;;;4971530;28;20504;-74
2023/02/24 01:42:06;;;;;;;9.03;4.13;;;9.80;99.90;;;;;;4960039;28;20450;-73
2023/02/24 01:44:32;;;;;;;9.70;3.37;;;9.80;99.90;;;;;;4944962;28;20406;-74
2023/02/24 01:47:01;;;;;;;11.30;3.67;;;9.80;99.90;;;;;;4944866;28;20461;-73
2023/02/24 01:49:33;;;;;;;9.40;4.07;;;9.80;99.90;;;;;;4976355;28;20484;-73
2023/02/24 01:52:11;;;;;;;10.40;3.60;;;9.80;99.90;;;;;;4973421;28;20429;-74
2023/02/24 01:54:54;;;;;;;9.07;3.40;;;9.80;99.90;;;;;;4944710;28;20456;-73
2023/02/24 01:57:30;;;;;;;13.77;3.70;;;9.80;99.90;;;;;;4961968;28;20457;-73
2023/02/24 02:00:08;;;;;;;11.20;3.30;;;9.80;99.90;;;;;;4959368;28;20409;-74
2023/02/24 02:02:45;;;;;;;11.33;3.43;;;9.80;99.90;;;;;;4976957;28;20437;-74
2023/02/24 02:05:14;;;;;;;14.57;5.13;;;9.70;99.90;;;;;;4952728;28;20834;-74
2023/02/24 02:07:43;;;;;;;10.70;3.50;;;9.80;99.90;;;;;;4974482;28;20441;-74
2023/02/24 02:10:10;;;;;;;10.83;3.67;;;9.70;99.90;;;;;;4937376;29;20445;-74
2023/02/24 02:12:45;;;;;;;11.40;3.37;;;9.70;99.90;;;;;;4961276;28;20440;-74
2023/02/24 02:15:19;;;;;;;12.73;3.80;;;9.70;99.90;;;;;;4976070;28;20471;-73
2023/02/24 02:17:47;;;;;;;12.23;4.30;;;9.70;99.90;;;;;;4971485;28;20446;-73
2023/02/24 02:20:38;;;;;;;12.80;3.47;;;9.70;99.90;;;;;;4938012;29;20967;-74
2023/02/24 02:23:10;;;;;;;9.30;4.10;;;9.70;99.90;;;;;;4937055;28;20457;-74
2023/02/24 02:25:38;;;;;;;10.73;3.80;;;9.70;99.90;;;;;;4976127;28;20432;-73
2023/02/24 02:28:13;;;;;;;10.77;3.37;;;9.70;99.90;;;;;;4968974;28;20446;-73
2023/02/24 02:31:24;;;;;;;7.40;3.90;;;9.70;99.90;;;;;;4940753;28;20449;-73
2023/02/24 02:33:53;;;;;;;13.90;3.60;;;9.70;99.90;;;;;;4911509;28;20476;-74
2023/02/24 02:36:30;;;;;;;13.50;3.60;;;9.70;99.90;;;;;;4956675;28;20449;-73
2023/02/24 02:39:10;;;;;;;9.73;3.80;;;9.70;99.90;;;;;;4939612;29;20526;-73
2023/02/24 02:41:48;;;;;;;10.07;3.93;;;9.60;99.90;;;;;;4955736;28;20459;-73
2023/02/24 02:44:46;;;;;;;10.73;3.77;;;9.60;99.90;;;;;;4974817;28;20508;-73
2023/02/24 02:47:17;;;;;;;10.30;3.73;;;9.60;99.90;;;;;;4959469;28;20441;-73
2023/02/24 02:49:51;;;;;;;11.30;4.43;;;9.60;99.90;;;;;;4940792;28;20873;-73
2023/02/24 02:53:01;;;;;;;14.17;3.87;;;9.60;99.90;;;;;;4956139;28;20474;-73
2023/02/24 02:55:37;;;;;;;8.87;3.90;;;9.60;99.90;;;;;;4929726;28;20480;-73
2023/02/24 02:58:08;;;;;;;10.33;3.73;;;9.60;99.90;;;;;;4959299;28;20536;-73
2023/02/24 03:00:57;;;;;;;8.60;3.47;;;9.60;99.90;;;;;;4959436;28;20421;-73
2023/02/24 03:03:27;;;;;;;11.37;3.40;;;9.60;99.90;;;;;;4951262;28;20862;-73
2023/02/24 03:06:18;;;;;;;10.43;4.10;;;9.60;99.90;;;;;;4940483;28;20430;-73
2023/02/24 03:09:14;;;;;;;10.47;3.93;;;9.60;99.90;;;;;;4965809;28;20454;-73
2023/02/24 03:11:52;;;;;;;8.23;3.00;;;9.60;99.90;;;;;;4955534;28;20945;-73
2023/02/24 03:14:25;;;;;;;9.93;3.53;;;9.60;99.90;;;;;;4974975;28;20437;-73
2023/02/24 03:16:57;;;;;;;17.43;4.00;;;9.60;99.90;;;;;;4975097;28;20852;-73
2023/02/24 03:19:37;;;;;;;12.43;3.50;;;9.60;99.90;;;;;;4959805;28;20415;-73
2023/02/24 03:22:20;;;;;;;14.80;4.70;;;9.60;99.90;;;;;;4955947;28;20773;-73
2023/02/24 03:24:52;;;;;;;8.30;3.17;;;9.60;99.90;;;;;;4955507;28;20469;-73
2023/02/24 03:27:32;;;;;;;12.50;3.93;;;9.60;99.90;;;;;;4955389;28;20843;-73
2023/02/24 03:30:08;;;;;;;10.60;3.60;;;9.60;99.90;;;;;;4948426;28;20436;-73
2023/02/24 03:32:49;;;;;;;11.17;3.80;;;9.50;99.90;;;;;;4950476;28;20437;-73
2023/02/24 03:35:34;;;;;;;7.10;3.47;;;9.50;99.90;;;;;;4975542;28;20461;-73
2023/02/24 03:38:03;;;;;;;8.93;3.90;;;9.50;99.90;;;;;;4988259;28;20484;-73
2023/02/24 03:40:34;;;;;;;8.47;3.50;;;9.50;99.90;;;;;;4955590;28;20410;-73
2023/02/24 03:43:08;;;;;;;14.77;3.30;;;9.50;99.90;;;;;;4959457;28;20511;-73
2023/02/24 03:45:39;;;;;;;7.93;3.00;;;9.50;99.90;;;;;;4958889;28;20424;-73
2023/02/24 03:48:10;;;;;;;9.40;4.67;;;9.50;99.90;;;;;;4954313;28;21045;-73
2023/02/24 03:50:39;;;;;;;11.53;3.80;;;9.50;99.90;;;;;;4955181;28;20445;-73
2023/02/24 03:53:36;;;;;;;13.23;3.90;;;9.50;99.90;;;;;;4960964;28;20962;-73
2023/02/24 03:56:09;;;;;;;9.70;3.50;;;9.50;99.90;;;;;;4958747;28;20576;-73
2023/02/24 03:58:45;;;;;;;11.10;3.23;;;9.50;99.90;;;;;;4969991;28;20858;-73
2023/02/24 04:01:29;;;;;;;7.30;2.83;;;9.50;99.90;;;;;;4959083;28;20430;-73
2023/02/24 04:04:09;;;;;;;15.10;2.90;;;9.50;99.90;;;;;;4970648;28;20475;-73
2023/02/24 04:07:22;;;;;;;8.23;3.47;;;9.50;99.90;;;;;;4962882;28;20457;-73
2023/02/24 04:10:01;;;;;;;8.50;3.00;;;9.50;99.90;;;;;;4974938;28;20544;-74
2023/02/24 04:13:03;;;;;;;13.40;4.10;;;9.50;99.90;;;;;;4959200;28;20412;-73
2023/02/24 04:15:37;;;;;;;6.67;3.83;;;9.40;99.90;;;;;;4916399;29;20840;-74
2023/02/24 04:18:15;;;;;;;13.53;3.73;;;9.40;99.90;;;;;;4941750;28;20799;-73
2023/02/24 04:20:49;;;;;;;8.10;3.10;;;9.40;99.90;;;;;;4962576;28;20486;-73
2023/02/24 04:23:21;;;;;;;7.70;3.13;;;9.40;99.90;;;;;;4971835;28;20451;-73
2023/02/24 04:25:55;;;;;;;6.40;3.03;;;9.40;99.90;;;;;;4959473;28;20459;-73
2023/02/24 04:28:23;;;;;;;8.03;3.47;;;9.40;99.90;;;;;;4948057;28;20498;-73
2023/02/24 04:30:57;;;;;;;9.60;2.90;;;9.40;99.90;;;;;;4978115;28;20421;-73
2023/02/24 04:33:24;;;;;;;7.70;3.20;;;9.40;99.90;;;;;;4977244;28;20480;-73
2023/02/24 04:35:53;;;;;;;9.57;3.10;;;9.40;99.90;;;;;;4978543;28;20448;-73
2023/02/24 04:38:23;;;;;;;5.33;3.03;;;9.40;99.90;;;;;;4976231;28;20441;-73
2023/02/24 04:40:50;;;;;;;11.87;3.10;;;9.40;99.90;;;;;;4951870;28;20463;-73
2023/02/24 04:43:18;;;;;;;7.93;3.30;;;9.40;99.90;;;;;;4962009;28;20429;-73
2023/02/24 04:45:46;;;;;;;8.03;2.83;;;9.40;99.90;;;;;;4962802;28;20433;-73
2023/02/24 04:48:13;;;;;;;9.10;2.77;;;9.40;99.90;;;;;;4959730;28;20483;-73
2023/02/24 04:50:41;;;;;;;8.47;3.07;;;9.40;99.90;;;;;;4961696;28;20941;-73
2023/02/24 04:53:13;;;;;;;10.63;3.13;;;9.30;99.90;;;;;;4969917;28;20465;-73
2023/02/24 04:55:48;;;;;;;13.03;3.47;;;9.30;99.90;;;;;;4958420;28;20441;-73
2023/02/24 04:58:19;;;;;;;8.20;3.20;;;9.40;99.90;;;;;;4976801;28;20962;-73
2023/02/24 05:00:51;;;;;;;11.60;3.10;;;9.30;99.90;;;;;;4958277;28;20433;-73
2023/02/24 05:03:21;;;;;;;9.67;3.60;;;9.30;99.90;;;;;;4942710;28;20422;-73
2023/02/24 05:05:55;;;;;;;12.50;2.93;;;9.30;99.90;;;;;;4958197;28;20528;-73
2023/02/24 05:08:22;;;;;;;13.70;3.07;;;9.30;99.90;;;;;;4958221;28;20456;-73
2023/02/24 05:10:49;;;;;;;7.33;3.57;;;9.30;99.90;;;;;;4957995;28;20489;-73
2023/02/24 05:13:26;;;;;;;8.97;3.60;;;9.30;99.90;;;;;;4935427;28;20445;-73
2023/02/24 05:15:58;;;;;;;9.70;3.10;;;9.30;99.90;;;;;;4958166;28;20458;-73
2023/02/24 05:18:30;;;;;;;9.13;2.73;;;9.30;99.90;;;;;;4974956;28;20449;-73
2023/02/24 05:23:53;;;;;;;9.20;3.27;;;9.30;99.90;;;;;;4970745;28;20430;-73
2023/02/24 05:26:25;;;;;;;7.23;3.13;;;9.30;99.90;;;;;;4977194;28;20412;-73
2023/02/24 05:28:55;;;;;;;6.53;2.70;;;9.30;99.90;;;;;;4981193;28;20433;-74
2023/02/24 05:31:24;;;;;;;10.40;3.00;;;9.20;99.90;;;;;;4958022;28;20481;-73
2023/02/24 05:33:56;;;;;;;11.20;2.70;;;9.20;99.90;;;;;;4969995;28;20480;-74
2023/02/24 05:36:23;;;;;;;9.10;3.50;;;9.20;99.90;;;;;;4977244;28;20970;-73
2023/02/24 05:38:56;;;;;;;7.60;3.60;;;9.20;99.90;;;;;;4965244;28;20451;-72
2023/02/24 05:41:31;;;;;;;5.30;2.47;;;9.20;99.90;;;;;;4957356;28;20425;-73
2023/02/24 05:44:01;;;;;;;8.87;3.00;;;9.20;99.90;;;;;;4988103;28;20750;-73
2023/02/24 05:46:39;;;;;;;7.67;2.90;;;9.20;99.90;;;;;;4977066;28;20425;-72
2023/02/24 05:49:13;;;;;;;4.77;2.53;;;9.20;99.90;;;;;;4927985;29;21181;-72
2023/02/24 05:51:42;;;;;;;6.33;3.07;;;9.20;99.90;;;;;;4957613;28;20455;-72
2023/02/24 05:54:11;;;;;;;6.77;2.90;;;9.20;99.90;;;;;;4963256;28;20488;-73
2023/02/24 05:56:41;;;;;;;7.87;3.00;;;9.20;99.90;;;;;;4957554;28;20465;-72
2023/02/24 05:59:10;;;;;;;9.63;2.90;;;9.20;99.90;;;;;;4957544;28;20439;-72
2023/02/24 06:01:44;;;;;;;8.83;3.20;;;9.20;99.90;;;;;;4958011;28;20803;-72
2023/02/24 06:04:19;;;;;;;5.70;2.60;;;9.20;99.90;;;;;;4957099;28;20799;-72
2023/02/24 06:06:53;;;;;;;11.63;3.30;;;9.20;99.90;;;;;;4956448;28;20464;-72
2023/02/24 06:09:21;;;;;;;7.93;3.13;;;9.20;99.90;;;;;;4957817;28;20422;-72
2023/02/24 06:11:50;;;;;;;5.47;2.80;;;9.20;99.90;;;;;;4957300;28;20406;-72
2023/02/24 06:14:24;;;;;;;10.63;3.20;;;9.20;99.90;;;;;;4976718;28;20476;-72
2023/02/24 06:16:50;;;;;;;5.47;3.10;;;9.20;99.90;;;;;;4993276;28;20468;-72
2023/02/24 06:19:19;;;;;;;5.13;3.07;;;9.10;99.90;;;;;;4982373;28;20507;-72
2023/02/24 06:21:48;;;;;;;7.30;2.97;;;9.10;99.90;;;;;;4949502;28;20437;-72
2023/02/24 06:24:14;;;;;;;5.40;2.60;;;9.10;99.90;;;;;;4956697;28;20440;-72
2023/02/24 06:26:42;;;;;;;13.73;3.10;;;9.10;99.90;;;;;;4975491;28;20442;-72
2023/02/24 06:29:16;;;;;;;6.10;3.00;;;9.10;99.90;;;;;;4957569;28;20464;-72
2023/02/24 06:31:47;;;;;;;7.63;3.17;;;9.20;99.90;;;;;;4982624;28;20433;-72
2023/02/24 06:34:18;;;;;;;5.00;2.43;;;9.10;99.90;;;;;;4959987;28;20431;-72
2023/02/24 06:36:45;;;;;;;6.13;3.17;;;9.10;99.90;;;;;;4975595;28;20511;-75
2023/02/24 06:39:13;;;;;;;10.60;3.40;;;9.10;99.90;;;;;;4989088;28;20457;-72
2023/02/24 06:41:39;;;;;;;7.37;3.37;;;9.10;99.90;;;;;;4973564;28;20980;-70
2023/02/24 06:44:08;;;;;;;5.30;3.00;;;9.10;99.90;;;;;;4973239;28;21169;-75
2023/02/24 06:46:37;;;;;;;8.83;3.50;;;9.10;99.90;;;;;;4950065;28;20512;-76
2023/02/24 06:49:08;;;;;;;8.03;2.60;;;9.10;99.90;;;;;;4994082;28;20774;-77
2023/02/24 06:51:35;;;;;;;6.07;2.90;;;9.10;99.90;;;;;;4965636;28;20459;-76
2023/02/24 06:54:05;;;;;;;6.00;3.20;;;9.10;99.90;;;;;;4939550;28;21008;-74
2023/02/24 06:56:37;;;;;;;6.80;3.37;;;9.10;99.90;;;;;;4943024;28;20547;-74
2023/02/24 06:59:10;;;;;;;7.93;2.70;;;9.10;99.90;;;;;;4957227;28;20467;-74
2023/02/24 07:01:43;;;;;;;6.87;3.07;;;9.10;99.90;;;;;;4948596;28;20969;-74
2023/02/24 07:06:39;;;;;;;6.63;3.50;;;9.00;99.90;;;;;;4972388;28;20441;-74
2023/02/24 07:09:14;;;;;;;5.50;2.73;;;9.00;99.90;;;;;;4956297;28;20793;-74
2023/02/24 07:11:44;;;;;;;6.30;2.77;;;9.00;99.90;;;;;;4935904;29;20977;-73
2023/02/24 07:14:13;;;;;;;7.70;3.63;;;9.00;99.90;;;;;;4964883;28;20476;-73
2023/02/24 07:16:44;;;;;;;7.93;3.00;;;9.00;99.90;;;;;;4963861;28;20552;-73
2023/02/24 07:19:15;;;;;;;12.43;3.27;;;9.00;99.90;;;;;;4939601;28;20410;-73
2023/02/24 07:21:51;;;;;;;6.60;3.30;;;9.00;99.90;;;;;;4973385;28;20425;-73
2023/02/24 07:24:24;;;;;;;5.73;3.57;;;9.00;99.90;;;;;;4923790;28;20518;-73
2023/02/24 07:27:08;;;;;;;9.73;3.40;;;9.00;99.90;;;;;;4940107;28;20519;-73
2023/02/24 07:29:37;;;;;;;7.77;3.63;;;9.00;99.90;;;;;;4972444;28;20464;-73
2023/02/24 07:32:09;;;;;;;9.40;2.77;;;9.00;99.90;;;;;;4942202;28;20418;-73
2023/02/24 07:34:38;;;;;;;7.83;2.70;;;9.00;99.90;;;;;;4954814;28;20434;-73
2023/02/24 07:37:06;;;;;;;9.90;3.67;;;9.00;99.90;;;;;;4939365;28;20474;-73
2023/02/24 07:39:35;;;;;;;9.87;2.93;;;9.00;99.90;;;;;;4940739;28;20489;-74
2023/02/24 07:42:02;;;;;;;7.50;3.10;;;9.00;99.90;;;;;;4977082;28;20423;-74
2023/02/24 07:44:29;;;;;;;6.83;3.00;;;9.00;99.90;;;;;;4960597;28;20426;-74
2023/02/24 07:46:57;;;;;;;6.43;2.90;;;8.90;99.90;;;;;;4955932;28;20508;-74
2023/02/24 07:49:28;;;;;;;6.53;2.90;;;9.00;99.90;;;;;;4968621;28;20434;-74
2023/02/24 07:51:56;;;;;;;10.40;3.70;;;8.90;99.90;;;;;;4954936;28;20441;-74
2023/02/24 07:54:26;;;;;;;6.87;3.00;;;8.90;99.90;;;;;;4970729;28;20473;-74
2023/02/24 07:56:58;;;;;;;11.83;3.40;;;8.90;99.90;;;;;;4956097;28;20990;-74
2023/02/24 07:59:32;;;;;;;11.80;3.90;;;8.90;99.90;;;;;;4929434;28;20860;-74
2023/02/24 08:02:03;;;;;;;5.47;3.10;;;8.90;99.90;;;;;;4957212;28;20413;-74
2023/02/24 08:04:32;;;;;;;5.90;3.77;;;8.90;99.90;;;;;;4973518;28;20915;-74
2023/02/24 08:07:01;;;;;;;4.80;2.53;;;8.90;99.90;;;;;;4940281;28;20476;-74
2023/02/24 08:12:16;;;;;;;8.43;3.80;;;8.90;99.90;;;;;;4952403;28;20461;-74
2023/02/24 08:14:52;;;;;;;7.93;3.13;;;8.90;99.90;;;;;;4975201;28;20426;-74
2023/02/24 08:17:20;;;;;;;7.70;3.13;;;8.90;99.90;;;;;;4939291;28;20441;-74
2023/02/24 08:19:48;;;;;;;6.90;3.83;;;8.80;99.90;;;;;;4975486;28;20437;-74
2023/02/24 08:22:22;;;;;;;10.27;3.93;;;8.80;99.90;;;;;;4957006;28;20855;-74
2023/02/24 08:24:59;;;;;;;13.60;4.30;;;8.80;99.90;;;;;;4959259;28;20472;-74
2023/02/24 08:27:29;;;;;;;11.63;3.17;;;8.80;99.90;;;;;;4937764;28;20516;-74
2023/02/24 08:29:57;;;;;;;9.83;4.33;;;8.80;99.90;;;;;;4956041;28;20858;-74
2023/02/24 08:32:32;;;;;;;13.30;3.50;;;8.80;99.90;;;;;;4972336;28;20485;-75
2023/02/24 08:35:36;;;;;;;7.67;3.37;;;8.80;99.90;;;;;;4965485;28;20464;-74
2023/02/24 08:38:14;;;;;;;6.30;3.10;;;8.80;99.90;;;;;;4952931;28;20469;-74
2023/02/24 08:40:50;;;;;;;7.30;3.43;;;8.80;99.90;;;;;;4940100;28;20449;-74
2023/02/24 08:43:18;;;;;;;6.50;3.43;;;8.80;99.90;;;;;;4945909;28;20440;-71
2023/02/24 08:45:49;;;;;;;6.70;3.40;;;8.80;99.90;;;;;;4969458;28;20444;-75
2023/02/24 08:51:22;;;;;;;7.63;4.03;;;8.80;99.90;;;;;;4942964;28;20453;-75
2023/02/24 08:53:55;;;;;;;8.33;3.50;;;8.80;99.90;;;;;;4942980;28;21105;-74
2023/02/24 08:56:27;;;;;;;8.20;3.87;;;8.80;99.90;;;;;;4963588;28;20490;-75
2023/02/24 08:59:04;;;;;;;8.23;3.33;;;8.80;99.90;;;;;;4944213;28;20475;-75
2023/02/24 09:01:36;;;;;;;8.70;3.40;;;8.80;99.90;;;;;;4940685;28;21039;-75
2023/02/24 09:04:08;;;;;;;7.97;3.20;;;8.80;99.90;;;;;;4959236;28;20555;-74
2023/02/24 09:06:39;;;;;;;8.67;3.90;;;8.80;99.90;;;;;;4979895;28;20483;-75
2023/02/24 09:09:17;;;;;;;8.53;3.37;;;8.70;99.90;;;;;;4956746;28;20461;-75
2023/02/24 09:11:48;;;;;;;3.97;3.03;;;8.70;99.90;;;;;;4958428;28;20931;-73
2023/02/24 09:14:17;;;;;;;11.83;4.20;;;8.70;99.90;;;;;;4948732;28;20974;-73
2023/02/24 09:22:56;;;;;;;8.60;4.27;;;8.70;99.90;;;;;;4972724;28;20463;-73
2023/02/24 09:25:24;;;;;;;7.30;3.20;;;8.70;99.90;;;;;;4972271;28;20500;-73
2023/02/24 09:28:08;;;;;;;6.87;3.30;;;8.70;99.90;;;;;;4958794;28;20959;-73
2023/02/24 09:30:37;;;;;;;10.37;3.73;;;8.70;99.90;;;;;;4941806;28;20470;-72
2023/02/24 09:33:16;;;;;;;9.10;3.20;;;8.70;99.90;;;;;;4944394;28;20430;-73
2023/02/24 09:35:50;;;;;;;7.60;3.37;;;8.70;99.90;;;;;;4976672;28;21008;-72
2023/02/24 09:38:45;;;;;;;8.30;2.93;;;8.70;99.90;;;;;;4926684;28;21035;-73
2023/02/24 09:41:30;;;;;;;11.20;2.93;;;8.70;99.90;;;;;;4960669;28;20946;-73
2023/02/24 09:44:17;;;;;;;5.93;2.80;;;8.70;99.90;;;;;;4941490;28;20451;-73
2023/02/24 09:46:55;;;;;;;9.63;3.43;;;8.70;99.90;;;;;;4954716;28;20445;-72
2023/02/24 09:49:38;;;;;;;6.20;3.30;;;8.70;99.90;;;;;;4957273;28;20542;-73
2023/02/24 09:52:17;;;;;;;12.17;3.20;;;8.70;99.90;;;;;;4928677;28;20453;-73
2023/02/24 09:58:21;;;;;;;5.10;2.47;;;8.70;99.90;;;;;;4956941;28;20464;-72
2023/02/24 10:01:22;;;;;;;9.03;3.00;;;8.70;99.90;;;;;;4949166;28;20425;-71
2023/02/24 10:04:04;;;;;;;10.00;3.20;;;8.70;99.90;;;;;;4972080;28;20414;-72
2023/02/24 10:06:39;;;;;;;6.87;2.43;;;8.70;99.90;;;;;;4974032;28;20434;-71
2023/02/24 10:09:13;;;;;;;8.70;2.73;;;8.60;99.90;;;;;;4941093;28;20429;-72
2023/02/24 10:11:54;;;;;;;6.90;2.93;;;8.60;99.90;;;;;;4941035;28;20432;-72
2023/02/24 10:14:53;;;;;;;5.30;2.53;;;8.70;99.90;;;;;;4957854;28;20433;-71
2023/02/24 10:17:22;;;;;;;6.17;2.40;;;8.60;99.90;;;;;;4933778;28;20450;-71
2023/02/24 10:19:55;;;;;;;7.90;2.90;;;8.60;99.90;;;;;;4939416;28;20452;-73
2023/02/24 10:22:38;;;;;;;3.73;2.57;;;8.60;99.90;;;;;;4936193;28;20573;-71
2023/02/24 10:25:26;;;;;;;6.70;2.60;;;8.60;99.90;;;;;;4955328;28;20516;-71
2023/02/24 10:28:14;;;;;;;4.93;2.50;;;8.60;99.90;;;;;;4956098;28;20457;-71
2023/02/24 10:31:08;;;;;;;6.67;2.30;;;8.60;99.90;;;;;;4974193;28;20834;-71
2023/02/24 10:33:44;;;;;;;8.23;2.80;;;8.60;99.90;;;;;;4977486;28;20456;-71
2023/02/24 10:36:29;;;;;;;13.07;3.57;;;8.60;99.90;;;;;;4973212;28;20465;-71
2023/02/24 10:39:07;;;;;;;9.37;2.40;;;8.60;99.90;;;;;;4952435;28;20421;-70
2023/02/24 10:41:46;;;;;;;9.60;3.10;;;8.60;99.90;;;;;;4954898;28;20454;-71
2023/02/24 10:44:22;;;;;;;9.30;2.67;;;8.60;99.90;;;;;;4971591;28;20476;-71
2023/02/24 10:47:16;;;;;;;6.97;2.40;;;8.60;99.90;;;;;;4936274;28;20478;-71
2023/02/24 10:49:58;;;;;;;6.80;2.30;;;8.60;99.90;;;;;;4970840;28;20551;-71
2023/02/24 10:55:52;;;;;;;9.50;3.20;;;8.60;99.90;;;;;;4954069;28;20463;-71
2023/02/24 10:59:14;;;;;;;6.63;2.90;;;8.60;99.90;;;;;;4969808;28;20975;-70
2023/02/24 11:01:41;;;;;;;8.07;3.10;;;8.60;99.90;;;;;;4955576;28;20436;-71
2023/02/24 11:07:23;;;;;;;9.70;3.07;;;8.60;99.90;;;;;;4950925;28;20456;-72
2023/02/24 11:10:10;;;;;;;12.63;4.13;;;8.60;99.90;;;;;;4955581;28;20440;-70
2023/02/24 11:18:30;;;;;;;11.03;3.40;;;8.50;99.90;;;;;;4955686;28;20464;-71
2023/02/24 11:21:01;;;;;;;14.20;3.20;;;8.50;99.90;;;;;;4967188;28;20569;-71
2023/02/24 11:23:29;;;;;;;9.13;3.00;;;8.50;99.90;;;;;;4967704;28;20457;-72
2023/02/24 11:26:15;;;;;;;8.10;3.80;;;8.50;99.90;;;;;;4953661;28;20556;-70
2023/02/24 11:29:06;;;;;;;10.17;3.10;;;8.50;99.90;;;;;;4964596;28;20519;-74
2023/02/24 11:32:09;;;;;;;6.77;3.07;;;8.50;99.90;;;;;;4972504;28;20419;-73
2023/02/24 11:34:53;;;;;;;12.20;3.47;;;8.50;99.90;;;;;;4939587;28;20436;-74
2023/02/24 11:37:40;;;;;;;8.10;2.80;;;8.50;99.90;;;;;;4967367;28;21000;-74
2023/02/24 11:40:18;;;;;;;6.10;2.90;;;8.50;99.90;;;;;;4958720;28;20460;-73
2023/02/24 11:43:17;;;;;;;11.10;3.70;;;8.50;99.90;;;;;;4958664;28;20425;-74
2023/02/24 11:46:00;;;;;;;9.33;2.93;;;8.50;99.90;;;;;;4976044;28;20404;-74
2023/02/24 11:48:33;;;;;;;8.43;3.27;;;8.50;99.90;;;;;;4949736;28;20879;-76
2023/02/24 11:51:22;;;;;;;7.10;3.20;;;8.50;99.90;;;;;;4973465;28;20453;-75
2023/02/24 11:54:11;;;;;;;8.47;3.80;;;8.50;99.90;;;;;;4957628;28;20447;-77
2023/02/24 11:56:44;;;;;;;9.93;3.87;;;8.50;99.90;;;;;;4972754;28;20948;-74
2023/02/24 11:59:45;;;;;;;7.70;3.30;;;8.50;99.90;;;;;;4962401;28;20429;-75
2023/02/24 12:02:24;;;;;;;17.40;3.67;;;8.50;99.90;;;;;;4950166;28;20452;-76
2023/02/24 12:04:59;;;;;;;9.20;3.07;;;8.40;99.90;;;;;;4953517;28;20440;-75
2023/02/24 12:08:01;;;;;;;9.03;3.53;;;8.40;99.90;;;;;;4976317;28;20499;-76
2023/02/24 12:10:34;;;;;;;13.00;3.60;;;8.40;99.90;;;;;;4959040;28;20434;-77
2023/02/24 12:13:10;;;;;;;7.03;3.27;;;8.40;99.90;;;;;;4972434;28;20776;-79
2023/02/24 12:15:51;;;;;;;8.83;3.77;;;8.40;99.90;;;;;;4954762;28;20561;-75
2023/02/24 12:18:33;;;;;;;6.90;2.77;;;8.40;99.90;;;;;;4956956;28;20465;-73
2023/02/24 12:21:19;;;;;;;6.93;3.60;;;8.40;99.90;;;;;;4982135;28;20432;-72
2023/02/24 12:23:49;;;;;;;10.17;4.03;;;8.40;99.90;;;;;;4939023;28;20461;-73
2023/02/24 12:26:41;;;;;;;8.97;3.50;;;8.40;99.90;;;;;;4953195;28;20469;-72
2023/02/24 12:29:19;;;;;;;8.00;3.20;;;8.40;99.90;;;;;;4944777;28;20429;-72
2023/02/24 12:32:36;;;;;;;9.37;3.30;;;8.40;99.90;;;;;;4964030;28;21042;-73
2023/02/24 12:35:23;;;;;;;8.30;3.80;;;8.40;99.90;;;;;;4969724;28;20970;-71
2023/02/24 12:38:27;;;;;;;10.77;3.53;;;8.40;99.90;;;;;;4973956;28;20449;-71
2023/02/24 12:41:02;;;;;;;6.00;3.40;;;8.40;99.90;;;;;;4981890;28;20478;-73
2023/02/24 12:43:55;;;;;;;9.90;3.67;;;8.40;99.90;;;;;;4959607;28;20425;-75
2023/02/24 12:46:34;;;;;;;12.00;4.07;;;8.40;99.90;;;;;;4979771;28;20425;-74
2023/02/24 12:49:22;;;;;;;11.20;3.77;;;8.40;99.90;;;;;;4961319;28;21045;-74
2023/02/24 12:52:19;;;;;;;7.80;3.50;;;8.30;99.90;;;;;;4944625;28;20433;-74
2023/02/24 12:54:51;;;;;;;7.60;3.60;;;8.30;99.90;;;;;;4979203;28;20440;-73
2023/02/24 12:57:30;;;;;;;7.53;4.13;;;8.30;99.90;;;;;;4960757;28;21016;-73
2023/02/24 13:00:05;;;;;;;9.77;4.20;;;8.30;99.90;;;;;;4961715;28;20429;-76
2023/02/24 13:02:42;;;;;;;11.87;4.43;;;8.30;99.90;;;;;;4992721;28;20415;-74
2023/02/24 13:05:36;;;;;;;6.87;3.80;;;8.30;99.90;;;;;;4926225;28;20500;-74
2023/02/24 13:08:16;;;;;;;12.67;4.67;;;8.30;99.90;;;;;;4938283;28;20852;-73
2023/02/24 13:11:02;;;;;;;9.30;5.00;;;8.30;99.90;;;;;;4957407;28;20439;-72
2023/02/24 13:13:45;;;;;;;8.43;4.23;;;8.40;99.90;;;;;;4993163;28;20430;-70
2023/02/24 13:16:11;;;;;;;10.07;3.63;;;8.30;99.90;;;;;;4963631;28;20994;-70
2023/02/24 13:18:40;;;;;;;5.90;3.60;;;8.30;99.90;;;;;;4956914;28;20949;-71
2023/02/24 13:21:21;;;;;;;15.27;4.23;;;8.30;99.90;;;;;;4962046;28;20455;-71
2023/02/24 13:24:02;;;;;;;10.47;4.40;;;8.30;99.90;;;;;;4959780;28;20476;-72
2023/02/24 13:26:31;;;;;;;10.13;4.67;;;8.30;99.90;;;;;;4973960;28;20944;-72
2023/02/24 13:29:11;;;;;;;7.20;3.53;;;8.30;99.90;;;;;;4941492;28;20425;-71
2023/02/24 13:31:44;;;;;;;6.73;3.53;;;8.30;99.90;;;;;;4984293;28;20997;-70
2023/02/24 13:34:51;;;;;;;12.27;4.97;;;8.30;99.90;;;;;;4961255;28;20428;-72
2023/02/24 13:37:26;;;;;;;5.83;3.60;;;8.30;99.90;;;;;;4887576;29;20548;-74
2023/02/24 13:39:53;;;;;;;6.83;4.57;;;8.30;99.90;;;;;;4895055;29;20947;-73
2023/02/24 13:42:30;;;;;;;8.50;4.20;;;8.30;99.90;;;;;;4908595;29;21005;-73
2023/02/24 13:45:06;;;;;;;9.93;4.43;;;8.30;99.90;;;;;;4898290;29;20567;-73
2023/02/24 13:48:12;;;;;;;9.90;3.80;;;8.30;99.90;;;;;;4899491;29;20588;-73
2023/02/24 13:50:56;;;;;;;11.23;5.43;;;8.30;99.90;;;;;;4881737;29;20443;-72
2023/02/24 13:53:50;;;;;;;7.10;3.73;;;8.30;99.90;;;;;;4897461;29;20428;-73
2023/02/24 13:56:25;;;;;;;9.53;4.13;;;8.30;99.90;;;;;;4895152;29;20960;-73
2023/02/24 13:59:22;;;;;;;6.13;4.40;;;8.30;99.90;;;;;;4889989;29;20463;-73
2023/02/24 14:01:50;;;;;;;12.50;5.40;;;8.30;99.90;;;;;;4873054;29;20449;-73
2023/02/24 14:04:30;;;;;;;8.60;3.80;;;8.30;99.90;;;;;;4886148;29;20966;-72
2023/02/24 14:07:05;;;;;;;9.07;4.00;;;8.30;99.90;;;;;;4881921;29;21005;-73
2023/02/24 14:09:41;;;;;;;8.57;4.10;;;8.30;99.90;;;;;;4984910;28;20456;-73
2023/02/24 14:12:15;;;;;;;6.73;3.83;;;8.30;99.90;;;;;;4963838;28;20447;-72
2023/02/24 14:14:45;;;;;;;8.73;4.20;;;8.30;99.90;;;;;;4939835;28;20445;-72